Terminal Aerodrome Forecast
Issued by NWS

Home | Current Version | Previous Version | Text Only | Print | Product List | Glossary On
Versions: 1 2 3 4 5 6 7 8 9 10 11 12 13 14 15 16 17 18 19 20 21 22 23 24 25
000
FTUS42 KMFL 290123 AAA
TAFOPF
TAF AMD
KOPF 290123Z 2901/2924 09013KT P6SM SCT025 SCT250
      TEMPO 2901/2904 BKN025
     FM291400 12015G25KT P6SM SCT030
     FM291800 11019G29KT P6SM SCT025 BKN050=

USA.gov is the U.S. government's official web portal to all federal, state and local government web resources and services.